Franklin, Argentina
Current Conditions -  °F | °C
As of 8:00 AM on Monday 20 Oct 2014 (Local Time) from SADF Reporting Station
Clear Clear  
Wind Chill: 63°   Ceiling: Unl
Heat Index: 63°   Visibility: 6mi
Dew Point: 54°   Wind: 7mph
Humidity: 72%   Direction: 90°E
Pressure: 30.18"   Gusts: NA
Location:  34.6°S, 59.62°W
Report Text: SADF 201100Z 09006KT CAVOK 17/12 Q1022
Loading
Personal Weather Stations






























Interactive Weather Map New forecast layout! Learn more

10-Day Weather Forecast

Advertisements
Track Severe Weather on mobile